Holloman Air Force Base
KHMN : now visible

Airfield :











YOU CAN JOIN US ON...

 
LOGIN :

Register | Disclaimer

   EN    FR    IT 

 









Legend :    VFR   Marginal VFR   IFR   Intensive IFR   Very Intensive IFR
Visi :
Ceiling :
>= 8 km
>= 3000ft
5 to 8 km
1000 to 3000 ft
1500m to 5 km
500 to 1000 ft
800 to 1500m
200 to 500 ft
< 800m
< 200 ft
Symbols :   Thunderstorms  Fog  Heavy snow  Heavy precipitations  Wind > 20 kt






- Airport Elevation : 4093 ft


KHMN - Holloman Air Force Base

CURRENT METAR :
  • 231758Z AUTO 16013KT 10SM FEW150 SCT190 28/12 A3021 RMK AO2 LTG DSNT NE AND SE SLP158 T02750119 10275 20212 50004 $

EXPIRED METARs :
  • 231658Z AUTO 15018KT 10SM FEW150 SCT180 27/11 A3020 RMK AO2 LTG DSNT E SLP157 T02680113 $
  • 231558Z AUTO 14020G25KT 10SM SCT140 SCT180 26/11 A3020 RMK AO2 PK WND 14026/29 LTG DSNT E SLP155 T02570111 $

TAF AMD TAF KHMN
Valid from the 23 at 18:00 until the 24 at 23:00 UTC


231800Z 2318/2423 16012G18KT 9999 SCT080 BKN140 BKN250 QNH3008INS TS OMTNS
TEMPO 2318/2319 16015G25KT VCTS BKN080CB BKN140 BKN250
TEMPO 2319/2324 VRB25G35KT 8000 -TSRA BKN080CB BKN140 BKN250
BECMG 2323/2324 VRB25G35KT 8000 -TSRA BKN060CB BKN140 OVC200 QNH3006INS
BECMG 2405/2406 17012KT 9000 -SHRA BKN060 BKN100 OVC200 QNH3010INS
TEMPO 2406/2408 VRB15G25KT
BECMG 2409/2410 VRB06KT 9999 NSW SCT100 BKN180 QNH3012INS
BECMG 2418/2419 26010G15KT 9999 BKN090 BKN180 QNH3010INS TS OMTNS E
TEMPO 2421/2423 9000 -SHRA VCTS BKN060CB BKN180 TX33/2322Z TN20/2413Z
KZAB FIR / North America



MET'MAP, your aeronautical weather chart ! - Copyright ORBIFLY December 2007 - Disclaimer

ORBIFLY MET'MAP TEAM :

Programming & Development : Alexandra Zaïnal
Concept & original design : Baudouin d'Aumeries
Assistance for programming : Marc-Olivier Méhu
Technical & hardware support : Manuel Goepfert

Contact : metmap@orbifly.com




SOURCES & CREDITS :

   NOAA       Earth
Advisory